Terminal Aerodrome Forecast
Issued by NWS

Home | Current Version | Previous Version | Text Only | Print | Product List | Glossary On
Versions: 1 2 3 4 5 6 7 8 9 10 11 12 13 14 15
000
FTUS45 KRIW 102338
TAFBPI
TAF
KBPI 102338Z 1100/1124 VRB05KT P6SM -SN SCT015 OVC040
     FM110100 26010KT 3SM -SN OVC025
     FM110400 30012G18KT P6SM VCSH SCT025 BKN040
     FM111700 30011KT P6SM BKN060=

USA.gov is the U.S. government's official web portal to all federal, state and local government web resources and services.